Time;durP1;ratioP1;P1;durP2;ratioP2;P2;SDS_P1;SDS_P2;PMS_P1;PMS_P2;Temp;Humidity;BMP_temperature;BMP_pressure;BME280_temperature;BME280_humidity;BME280_pressure;Samples;Min_cycle;Max_cycle;Signal;HPM_P1;HPM_P2
2024/01/13 00:01:05;;;;;;;43.42;18.05;;;-2.20;99.90;;;;;;5008397;28;20366;-76
2024/01/13 00:03:34;;;;;;;46.05;19.17;;;-2.30;99.90;;;;;;5007735;28;20105;-77
2024/01/13 00:06:07;;;;;;;40.38;17.33;;;-2.30;99.90;;;;;;5008325;28;20052;-76
2024/01/13 00:08:32;;;;;;;48.45;19.63;;;-2.30;99.90;;;;;;5040831;28;20021;-76
2024/01/13 00:10:59;;;;;;;43.53;17.85;;;-2.40;99.90;;;;;;5025539;28;20036;-76
2024/01/13 00:13:43;;;;;;;48.13;19.88;;;-2.40;99.90;;;;;;5025217;28;20103;-77
2024/01/13 00:16:09;;;;;;;45.08;20.42;;;-2.40;99.90;;;;;;5025489;28;20092;-77
2024/01/13 00:18:41;;;;;;;46.85;19.25;;;-2.40;99.90;;;;;;4991470;28;20049;-76
2024/01/13 00:21:07;;;;;;;44.53;19.30;;;-2.40;99.90;;;;;;5024330;28;20025;-78
2024/01/13 00:23:36;;;;;;;48.60;20.67;;;-2.40;99.90;;;;;;5007461;28;20261;-77
2024/01/13 00:26:02;;;;;;;46.78;19.23;;;-2.40;99.90;;;;;;5007927;28;20021;-76
2024/01/13 00:28:37;;;;;;;43.92;18.00;;;-2.40;99.90;;;;;;5011792;28;20037;-77
2024/01/13 00:31:06;;;;;;;47.72;20.20;;;-2.40;99.90;;;;;;5010101;28;20100;-76
2024/01/13 00:33:32;;;;;;;45.63;19.20;;;-2.40;99.90;;;;;;5007076;28;20140;-77
2024/01/13 00:36:05;;;;;;;42.25;18.17;;;-2.40;99.90;;;;;;4991557;28;20018;-75
2024/01/13 00:38:34;;;;;;;45.65;19.52;;;-2.30;99.90;;;;;;5007617;28;20029;-76
2024/01/13 00:41:05;;;;;;;40.13;17.42;;;-2.30;99.90;;;;;;4991399;28;20108;-77
2024/01/13 00:43:31;;;;;;;41.45;17.88;;;-2.30;99.90;;;;;;4991317;28;20022;-77
2024/01/13 00:45:57;;;;;;;40.67;17.45;;;-2.40;99.90;;;;;;5027696;28;20096;-75
2024/01/13 00:48:23;;;;;;;44.60;16.92;;;-2.30;99.90;;;;;;5007992;28;20200;-77
2024/01/13 00:50:48;;;;;;;37.47;15.82;;;-2.30;99.90;;;;;;5023409;28;20046;-76
2024/01/13 00:53:17;;;;;;;39.92;17.67;;;-2.30;99.90;;;;;;5024731;28;20300;-75
2024/01/13 00:55:47;;;;;;;42.45;18.80;;;-2.20;99.90;;;;;;5023817;28;20018;-79
2024/01/13 00:58:18;;;;;;;44.42;19.40;;;-2.20;99.90;;;;;;5007481;28;20034;-76
2024/01/13 01:00:49;;;;;;;43.97;18.67;;;-2.10;99.90;;;;;;5007041;28;20100;-75
2024/01/13 01:03:35;;;;;;;42.58;18.55;;;-2.00;99.90;;;;;;5026725;28;20083;-76
2024/01/13 01:06:04;;;;;;;44.10;20.13;;;-2.00;99.90;;;;;;5007110;28;20060;-76
2024/01/13 01:08:39;;;;;;;51.40;19.88;;;-1.90;99.90;;;;;;5024295;28;20180;-76
2024/01/13 01:11:11;;;;;;;46.92;20.33;;;-1.90;99.90;;;;;;5007274;28;20034;-76
2024/01/13 01:13:43;;;;;;;48.88;20.95;;;-1.90;99.90;;;;;;5006742;28;20025;-78
2024/01/13 01:16:15;;;;;;;53.08;20.08;;;-1.90;99.90;;;;;;5007196;28;20097;-76
2024/01/13 01:18:44;;;;;;;49.03;20.10;;;-2.10;99.90;;;;;;5027469;28;20220;-76
2024/01/13 01:21:20;;;;;;;49.22;19.63;;;-2.10;99.90;;;;;;5007315;28;20022;-75
2024/01/13 01:23:52;;;;;;;46.88;19.92;;;-2.20;99.90;;;;;;5006456;28;20026;-76
2024/01/13 01:26:18;;;;;;;48.80;19.65;;;-2.20;99.90;;;;;;5007008;28;20033;-75
2024/01/13 01:28:50;;;;;;;49.95;21.15;;;-2.20;99.90;;;;;;4990219;28;20037;-77
2024/01/13 01:31:18;;;;;;;55.75;21.98;;;-2.20;99.90;;;;;;5042313;28;20032;-77
2024/01/13 01:33:50;;;;;;;51.78;20.83;;;-2.20;99.90;;;;;;5043392;28;20033;-77
2024/01/13 01:36:19;;;;;;;54.05;22.88;;;-2.20;99.90;;;;;;5016448;28;20069;-76
2024/01/13 01:38:44;;;;;;;48.75;19.92;;;-2.10;99.90;;;;;;5023544;28;20038;-76
2024/01/13 01:41:16;;;;;;;47.38;20.27;;;-2.20;99.90;;;;;;5024229;28;20204;-75
2024/01/13 01:43:48;;;;;;;57.90;22.92;;;-2.20;99.90;;;;;;5006240;28;20096;-78
2024/01/13 01:46:31;;;;;;;55.30;23.42;;;-2.20;99.90;;;;;;5007616;28;20022;-77
2024/01/13 01:49:00;;;;;;;57.13;23.80;;;-2.20;99.90;;;;;;5006349;28;20022;-75
2024/01/13 01:51:46;;;;;;;60.80;23.33;;;-2.30;99.90;;;;;;5027404;28;20144;-75
2024/01/13 01:54:28;;;;;;;49.20;21.48;;;-2.30;99.90;;;;;;5004159;28;20247;-77
2024/01/13 01:56:58;;;;;;;54.40;22.98;;;-2.20;99.90;;;;;;5006163;28;20044;-75
2024/01/13 01:59:29;;;;;;;54.42;22.35;;;-2.10;99.90;;;;;;5006140;28;20285;-76
2024/01/13 02:02:09;;;;;;;49.78;21.98;;;-2.20;99.90;;;;;;5006211;28;20030;-76
2024/01/13 02:04:52;;;;;;;43.08;19.50;;;-2.20;99.90;;;;;;5005979;28;20076;-78
2024/01/13 02:07:24;;;;;;;50.65;21.13;;;-2.20;99.90;;;;;;4989822;28;20346;-77
2024/01/13 02:10:06;;;;;;;46.92;20.35;;;-2.20;99.90;;;;;;5026947;28;20044;-77
2024/01/13 02:12:32;;;;;;;44.97;21.17;;;-2.30;99.90;;;;;;5005522;28;20038;-76
2024/01/13 02:15:01;;;;;;;45.00;20.00;;;-2.20;99.90;;;;;;5023729;28;20034;-76
2024/01/13 02:17:51;;;;;;;48.28;21.52;;;-2.10;99.90;;;;;;5022751;28;20393;-76
2024/01/13 02:20:20;;;;;;;49.60;20.45;;;-2.00;99.90;;;;;;5023193;28;20316;-76
2024/01/13 02:23:09;;;;;;;49.33;20.83;;;-2.00;99.90;;;;;;5017933;28;20056;-78
2024/01/13 02:25:41;;;;;;;50.45;20.90;;;-2.10;99.90;;;;;;5014796;28;20087;-76
2024/01/13 02:28:09;;;;;;;49.88;21.40;;;-2.20;99.90;;;;;;5023705;28;20038;-77
2024/01/13 02:30:54;;;;;;;55.47;22.23;;;-2.20;99.90;;;;;;5036102;28;20029;-76
2024/01/13 02:33:25;;;;;;;55.35;22.90;;;-2.20;99.90;;;;;;5042664;28;20026;-77
2024/01/13 02:35:54;;;;;;;52.65;22.00;;;-2.30;99.90;;;;;;5042123;28;20111;-76
2024/01/13 02:38:35;;;;;;;52.97;21.33;;;-2.30;99.90;;;;;;5025241;28;20037;-76
2024/01/13 02:41:06;;;;;;;50.28;21.60;;;-2.30;99.90;;;;;;5033686;28;20033;-75
2024/01/13 02:43:35;;;;;;;54.47;22.70;;;-2.30;99.90;;;;;;5033694;28;20391;-76
2024/01/13 02:46:04;;;;;;;55.83;22.30;;;-2.30;99.90;;;;;;5021230;28;20047;-78
2024/01/13 02:48:48;;;;;;;54.08;22.73;;;-2.20;99.90;;;;;;5020751;28;20025;-77
2024/01/13 02:51:23;;;;;;;58.38;23.52;;;-2.20;99.90;;;;;;4985872;28;20326;-76
2024/01/13 02:54:18;;;;;;;54.30;21.98;;;-2.20;99.90;;;;;;4985546;28;20030;-77
2024/01/13 02:56:46;;;;;;;56.80;23.33;;;-2.10;99.90;;;;;;4972600;28;20046;-78
2024/01/13 02:59:15;;;;;;;54.53;24.42;;;-2.10;99.90;;;;;;5007098;28;20034;-77
2024/01/13 03:01:40;;;;;;;55.92;23.83;;;-2.00;99.90;;;;;;4985227;28;20014;-77
2024/01/13 03:04:18;;;;;;;57.95;22.73;;;-2.00;99.90;;;;;;5002950;28;20038;-77
2024/01/13 03:06:44;;;;;;;60.35;23.80;;;-2.00;99.90;;;;;;5001703;28;20041;-77
2024/01/13 03:09:09;;;;;;;61.13;24.75;;;-2.00;99.90;;;;;;4985671;28;20038;-76
2024/01/13 03:11:35;;;;;;;65.13;26.58;;;-2.00;99.90;;;;;;5001883;28;20077;-78
2024/01/13 03:14:10;;;;;;;61.00;22.85;;;-1.90;99.90;;;;;;4985918;28;20248;-76
2024/01/13 03:16:45;;;;;;;58.28;23.48;;;-1.90;99.90;;;;;;5014085;28;20040;-77
2024/01/13 03:22:32;;;;;;;59.20;24.20;;;-1.80;99.90;;;;;;4942885;29;20052;-77
2024/01/13 03:25:37;;;;;;;50.38;21.35;;;-1.80;99.90;;;;;;4931941;29;20030;-77
2024/01/13 03:28:09;;;;;;;43.78;18.42;;;-1.80;99.90;;;;;;4946749;29;20028;-78
2024/01/13 03:30:47;;;;;;;42.83;20.02;;;-1.80;99.90;;;;;;4926633;29;20049;-76
2024/01/13 03:34:16;;;;;;;48.65;19.80;;;-1.80;99.90;;;;;;4942700;29;20386;-77
2024/01/13 03:36:45;;;;;;;57.63;23.52;;;-1.80;99.90;;;;;;4892666;29;20044;-77
2024/01/13 03:39:22;;;;;;;57.78;23.80;;;-1.90;99.90;;;;;;4965940;28;20049;-77
2024/01/13 03:42:07;;;;;;;57.20;22.55;;;-1.90;99.90;;;;;;4984900;28;20038;-77
2024/01/13 03:44:43;;;;;;;48.65;21.88;;;-1.90;99.90;;;;;;4979858;28;20038;-77
2024/01/13 03:47:41;;;;;;;49.60;20.50;;;-1.90;99.90;;;;;;4984924;28;20081;-78
2024/01/13 03:50:16;;;;;;;49.85;21.60;;;-1.80;99.90;;;;;;4986576;28;20163;-78
2024/01/13 03:52:42;;;;;;;45.30;19.70;;;-1.80;99.90;;;;;;5040094;28;20084;-78
2024/01/13 03:55:11;;;;;;;52.65;22.30;;;-1.80;99.90;;;;;;5041829;28;20029;-76
2024/01/13 03:57:46;;;;;;;50.45;21.77;;;-1.80;99.90;;;;;;5023117;28;20052;-77
2024/01/13 04:00:15;;;;;;;56.67;22.83;;;-1.80;99.90;;;;;;5023655;28;20037;-77
2024/01/13 04:02:40;;;;;;;54.83;21.48;;;-1.80;99.90;;;;;;5023330;28;20320;-78
2024/01/13 04:05:09;;;;;;;57.70;22.50;;;-1.90;99.90;;;;;;5041842;28;20022;-77
2024/01/13 04:07:50;;;;;;;57.45;22.92;;;-1.90;99.90;;;;;;5041162;28;20161;-77
2024/01/13 04:10:15;;;;;;;52.40;21.83;;;-2.00;99.90;;;;;;5036164;28;20133;-77
2024/01/13 04:12:50;;;;;;;50.30;21.98;;;-2.00;99.90;;;;;;5040048;28;20029;-77
2024/01/13 04:15:19;;;;;;;50.67;20.35;;;-1.90;99.90;;;;;;5042448;28;20327;-78
2024/01/13 04:17:48;;;;;;;48.13;19.85;;;-1.90;99.90;;;;;;5042414;28;20037;-77
2024/01/13 04:20:22;;;;;;;45.60;19.10;;;-1.80;99.90;;;;;;5044830;28;20101;-76
2024/01/13 04:22:48;;;;;;;46.90;19.50;;;-1.80;99.90;;;;;;5043250;28;20270;-79
2024/01/13 04:25:26;;;;;;;44.20;17.95;;;-1.80;99.90;;;;;;5026777;28;20064;-78
2024/01/13 04:27:54;;;;;;;44.78;18.95;;;-1.90;99.90;;;;;;5042097;28;20029;-78
2024/01/13 04:30:26;;;;;;;44.92;18.90;;;-1.90;99.90;;;;;;5032254;28;20212;-77
2024/01/13 04:32:54;;;;;;;45.50;18.42;;;-1.90;99.90;;;;;;5024747;28;20036;-76
2024/01/13 04:35:45;;;;;;;45.20;18.27;;;-1.80;99.90;;;;;;5025098;28;20088;-76
2024/01/13 04:38:23;;;;;;;43.45;18.40;;;-1.80;99.90;;;;;;5007862;28;20037;-78
2024/01/13 04:40:49;;;;;;;42.78;18.80;;;-1.90;99.90;;;;;;5024968;28;20329;-77
2024/01/13 04:43:38;;;;;;;45.88;18.30;;;-2.00;99.90;;;;;;5025445;28;20072;-76
2024/01/13 04:46:51;;;;;;;46.42;20.27;;;-2.10;99.90;;;;;;5010234;28;20060;-77
2024/01/13 04:49:49;;;;;;;46.17;20.37;;;-2.10;99.90;;;;;;5024774;28;20056;-77
2024/01/13 04:52:17;;;;;;;;;;;-2.00;99.90;;;;;;4999706;28;20091;-78
2024/01/13 04:54:51;;;;;;;53.88;21.30;;;-2.00;99.90;;;;;;5024679;28;19905;-78
2024/01/13 04:57:41;;;;;;;59.95;24.10;;;-2.00;99.90;;;;;;5020120;28;20037;-77
2024/01/13 05:00:28;;;;;;;54.42;21.80;;;-1.90;99.90;;;;;;5007613;28;20025;-77
2024/01/13 05:03:18;;;;;;;58.47;22.40;;;-1.80;99.90;;;;;;4995827;28;20044;-77
2024/01/13 05:05:44;;;;;;;52.50;22.88;;;-1.70;99.90;;;;;;5006642;28;20025;-77
2024/01/13 05:08:13;;;;;;;60.25;24.38;;;-1.70;99.90;;;;;;5025014;28;20049;-77
2024/01/13 05:13:45;;;;;;;59.35;23.38;;;-1.70;99.90;;;;;;5009440;28;20048;-77
2024/01/13 05:16:13;;;;;;;56.80;22.70;;;-1.80;99.90;;;;;;5024420;28;20064;-76
2024/01/13 05:18:57;;;;;;;59.13;24.40;;;-1.80;99.90;;;;;;5024051;28;20093;-77
2024/01/13 05:21:51;;;;;;;59.95;23.17;;;-1.90;99.90;;;;;;5021779;28;20030;-77
2024/01/13 05:24:18;;;;;;;52.80;20.75;;;-1.80;99.90;;;;;;4990810;28;20217;-78
2024/01/13 05:27:24;;;;;;;57.72;23.35;;;-1.70;99.90;;;;;;5006366;28;20052;-77
2024/01/13 05:30:09;;;;;;;56.90;22.88;;;-1.60;99.90;;;;;;5012812;28;20029;-78
2024/01/13 05:33:03;;;;;;;48.40;20.42;;;-1.60;99.90;;;;;;5043512;28;20350;-77
2024/01/13 05:35:53;;;;;;;48.78;21.08;;;-1.70;99.90;;;;;;5040641;28;20053;-78
2024/01/13 05:38:50;;;;;;;55.83;22.17;;;-1.70;99.90;;;;;;5032216;28;20029;-78
2024/01/13 05:41:26;;;;;;;55.30;23.50;;;-1.80;99.90;;;;;;5024411;28;20022;-79
2024/01/13 05:44:21;;;;;;;52.33;19.90;;;-1.90;99.90;;;;;;5006313;28;20042;-77
2024/01/13 05:47:23;;;;;;;55.00;22.70;;;-1.80;99.90;;;;;;5018415;28;20144;-77
2024/01/13 05:50:14;;;;;;;61.63;25.23;;;-1.80;99.90;;;;;;5022307;28;20038;-78
2024/01/13 05:52:49;;;;;;;60.65;23.83;;;-1.80;99.90;;;;;;5006357;28;20324;-79
2024/01/13 05:59:06;;;;;;;63.70;25.27;;;-1.80;99.90;;;;;;5001956;28;20150;-77
2024/01/13 06:02:50;;;;;;;;;;;;;;;;;;;;;
2024/01/13 06:05:33;;;;;;;51.67;20.90;;;-1.80;99.90;;;;;;5002361;28;20034;-77
2024/01/13 06:08:14;;;;;;;50.53;20.13;;;-1.80;99.90;;;;;;4986304;28;20215;-78
2024/01/13 06:10:47;;;;;;;46.90;19.98;;;-1.80;99.90;;;;;;4991231;28;20042;-76
2024/01/13 06:13:27;;;;;;;49.35;20.20;;;-1.90;99.90;;;;;;4977677;28;20045;-78
2024/01/13 06:16:06;;;;;;;44.40;17.70;;;-1.90;99.90;;;;;;4966502;28;20058;-77
2024/01/13 06:18:40;;;;;;;44.78;17.90;;;-2.00;99.90;;;;;;4982026;28;20050;-79
2024/01/13 06:21:07;;;;;;;47.15;19.20;;;-2.00;99.90;;;;;;4966134;28;20073;-79
2024/01/13 06:23:42;;;;;;;44.83;18.60;;;-2.00;99.90;;;;;;4965750;28;20035;-77
2024/01/13 06:26:07;;;;;;;47.53;18.95;;;-2.10;99.90;;;;;;4997180;28;20038;-80
2024/01/13 06:28:35;;;;;;;47.85;20.02;;;-2.10;99.90;;;;;;5001133;28;20042;-77
2024/01/13 06:31:09;;;;;;;48.50;18.65;;;-2.20;99.90;;;;;;4982365;28;20097;-78
2024/01/13 06:33:36;;;;;;;51.17;20.25;;;-2.20;99.90;;;;;;4965849;28;20069;-78
2024/01/13 06:36:02;;;;;;;48.78;20.05;;;-2.20;99.90;;;;;;4995512;28;20029;-78
2024/01/13 06:38:34;;;;;;;46.08;18.52;;;-2.20;99.90;;;;;;5023802;28;20018;-78
2024/01/13 06:41:05;;;;;;;46.13;19.25;;;-2.10;99.90;;;;;;5026128;28;20299;-78
2024/01/13 06:43:46;;;;;;;48.63;19.75;;;-2.10;99.90;;;;;;5004828;28;20056;-77
2024/01/13 06:46:23;;;;;;;46.05;19.35;;;-2.20;99.90;;;;;;5021931;28;20061;-80
2024/01/13 06:49:07;;;;;;;47.35;18.17;;;-2.30;99.90;;;;;;5004604;28;20030;-78
2024/01/13 06:51:34;;;;;;;49.53;19.95;;;-2.30;99.90;;;;;;5021107;28;20029;-77
2024/01/13 06:54:12;;;;;;;51.50;21.75;;;-2.30;99.90;;;;;;5005081;28;20018;-78
2024/01/13 06:56:50;;;;;;;55.15;21.33;;;-2.20;99.90;;;;;;5022251;28;20043;-78
2024/01/13 06:59:33;;;;;;;55.42;22.73;;;-2.30;99.90;;;;;;5027613;28;20070;-79
2024/01/13 07:02:02;;;;;;;56.38;23.60;;;-2.30;99.90;;;;;;5022771;28;20304;-80
2024/01/13 07:04:37;;;;;;;58.15;22.83;;;-2.30;99.90;;;;;;4985149;28;20158;-79
2024/01/13 07:07:31;;;;;;;58.50;22.33;;;-2.20;99.90;;;;;;5022434;28;20029;-79
2024/01/13 07:10:25;;;;;;;53.10;20.63;;;-2.30;99.90;;;;;;4983360;28;20103;-80
2024/01/13 07:13:19;;;;;;;54.22;20.95;;;-2.40;99.90;;;;;;4965028;28;20333;-79
2024/01/13 07:15:45;;;;;;;57.85;20.50;;;-2.40;99.90;;;;;;5001017;28;20048;-79
2024/01/13 07:18:13;;;;;;;53.40;21.88;;;-2.40;99.90;;;;;;5024762;28;20223;-79
2024/01/13 07:20:42;;;;;;;58.40;22.77;;;-2.50;99.90;;;;;;5040445;28;20082;-79
2024/01/13 07:23:08;;;;;;;54.95;22.48;;;-2.50;99.90;;;;;;5043492;28;20077;-75
2024/01/13 07:26:00;;;;;;;58.83;23.88;;;-2.50;99.90;;;;;;5044561;28;20032;-76
2024/01/13 07:28:26;;;;;;;65.47;23.47;;;-2.50;99.90;;;;;;5024869;28;20034;-79
2024/01/13 07:30:52;;;;;;;58.80;22.73;;;-2.50;99.90;;;;;;5018764;28;20456;-79
2024/01/13 07:33:21;;;;;;;58.28;22.08;;;-2.50;99.90;;;;;;5042655;28;20013;-77
2024/01/13 07:35:46;;;;;;;56.67;22.88;;;-2.50;99.90;;;;;;5024027;28;20033;-76
2024/01/13 07:38:18;;;;;;;58.58;22.80;;;-2.50;99.90;;;;;;5041949;28;20101;-77
2024/01/13 07:40:50;;;;;;;55.83;22.88;;;-2.40;99.90;;;;;;5024042;28;20017;-77
2024/01/13 07:43:15;;;;;;;60.55;23.85;;;-2.40;99.90;;;;;;5042766;28;20057;-76
2024/01/13 07:45:44;;;;;;;59.05;22.77;;;-2.40;99.90;;;;;;5023832;28;20041;-79
2024/01/13 07:48:36;;;;;;;60.88;22.63;;;-2.40;99.90;;;;;;5031641;28;20024;-80
2024/01/13 07:51:11;;;;;;;58.67;22.73;;;-2.50;99.90;;;;;;5029159;28;20041;-78
2024/01/13 07:56:37;;;;;;;63.17;22.48;;;-2.50;99.90;;;;;;5017549;28;20063;-79
2024/01/13 07:59:31;;;;;;;56.90;22.25;;;-2.50;99.90;;;;;;5031640;28;20100;-77
2024/01/13 08:02:11;;;;;;;54.78;21.08;;;-2.40;99.90;;;;;;5029535;28;20025;-83
2024/01/13 08:04:43;;;;;;;48.83;19.40;;;-2.30;99.90;;;;;;5027897;28;20339;-78
2024/01/13 08:07:13;;;;;;;56.90;20.92;;;-2.30;99.90;;;;;;4989308;28;20046;-76
2024/01/13 08:09:51;;;;;;;48.30;20.95;;;-2.20;99.90;;;;;;5000628;28;20054;-78
2024/01/13 08:12:22;;;;;;;44.72;18.58;;;-2.20;99.90;;;;;;4984924;28;20046;-76
2024/01/13 08:15:14;;;;;;;36.63;13.70;;;-2.30;99.90;;;;;;4972084;28;20253;-78
2024/01/13 08:17:51;;;;;;;52.03;19.90;;;-2.30;99.90;;;;;;5022261;28;20069;-79
2024/01/13 08:20:26;;;;;;;45.83;18.35;;;-2.20;99.90;;;;;;5008414;28;20108;-77
2024/01/13 08:23:19;;;;;;;45.75;18.38;;;-2.20;99.90;;;;;;5028662;28;20044;-83
2024/01/13 08:26:24;;;;;;;46.42;17.75;;;-2.10;99.90;;;;;;4994057;28;20056;-86
2024/01/13 08:29:09;;;;;;;39.05;16.67;;;-2.10;99.90;;;;;;4944711;28;20118;-80
2024/01/13 08:31:53;;;;;;;38.60;16.00;;;-2.10;99.90;;;;;;5025093;28;20289;-79
2024/01/13 08:34:39;;;;;;;39.58;17.48;;;-2.00;99.90;;;;;;5007669;28;20034;-79
2024/01/13 08:37:20;;;;;;;40.22;16.60;;;-2.00;99.90;;;;;;5025492;28;20224;-76
2024/01/13 08:39:46;;;;;;;38.17;15.23;;;-2.10;99.90;;;;;;5028456;28;20063;-77
2024/01/13 08:42:11;;;;;;;33.38;14.43;;;-1.90;99.90;;;;;;5007896;28;20097;-78
2024/01/13 08:44:52;;;;;;;37.15;15.80;;;-1.80;99.90;;;;;;5007549;28;20033;-76
2024/01/13 08:47:33;;;;;;;35.42;14.60;;;-1.60;99.90;;;;;;5025334;28;20194;-79
2024/01/13 08:49:59;;;;;;;35.50;14.30;;;-1.70;99.90;;;;;;5024912;28;20054;-75
2024/01/13 08:52:25;;;;;;;35.28;15.10;;;-1.60;99.90;;;;;;5025286;28;20076;-77
2024/01/13 08:54:53;;;;;;;33.47;14.10;;;-1.50;99.90;;;;;;5023778;28;20038;-76
2024/01/13 08:57:19;;;;;;;31.20;13.00;;;-1.60;99.90;;;;;;5008314;28;20022;-77
2024/01/13 08:59:45;;;;;;;34.22;12.90;;;-1.40;99.90;;;;;;5044290;28;20358;-77
2024/01/13 09:02:13;;;;;;;33.08;12.73;;;-1.40;99.90;;;;;;5043461;28;20034;-77
2024/01/13 09:04:39;;;;;;;32.08;13.07;;;-1.40;99.90;;;;;;5042852;28;20065;-77
2024/01/13 09:07:14;;;;;;;41.10;15.82;;;-1.30;99.90;;;;;;5044699;28;20071;-78
2024/01/13 09:09:46;;;;;;;37.05;14.05;;;-1.30;99.90;;;;;;5026360;28;20056;-80
2024/01/13 09:12:37;;;;;;;37.92;16.23;;;-1.20;99.90;;;;;;5029818;28;20044;-77
2024/01/13 09:15:06;;;;;;;36.47;14.55;;;-1.20;99.90;;;;;;5037744;28;20032;-77
2024/01/13 09:17:38;;;;;;;39.58;15.02;;;-1.20;99.90;;;;;;5026370;28;20316;-76
2024/01/13 09:20:04;;;;;;;34.55;13.90;;;-1.20;99.90;;;;;;5039568;28;20131;-77
2024/01/13 09:22:30;;;;;;;40.33;15.52;;;-1.00;99.90;;;;;;5024003;28;20029;-77
2024/01/13 09:24:56;;;;;;;38.15;15.40;;;-1.10;99.90;;;;;;5037734;28;20028;-76
2024/01/13 09:27:21;;;;;;;34.63;14.38;;;-1.00;99.90;;;;;;5044598;28;20236;-74
2024/01/13 09:29:50;;;;;;;30.95;13.52;;;-0.90;99.90;;;;;;5030829;28;20246;-75
2024/01/13 09:32:16;;;;;;;29.60;12.00;;;-0.90;99.90;;;;;;5024458;28;20022;-76
2024/01/13 09:34:45;;;;;;;35.75;12.90;;;-0.90;99.90;;;;;;5025265;28;20072;-77
2024/01/13 09:37:10;;;;;;;34.25;12.70;;;-0.90;99.90;;;;;;5034167;28;20075;-76
2024/01/13 09:39:36;;;;;;;29.45;12.50;;;-0.80;99.90;;;;;;5042194;28;20323;-76
2024/01/13 09:42:17;;;;;;;28.40;11.05;;;-0.80;99.90;;;;;;5042653;28;20304;-76
2024/01/13 09:44:44;;;;;;;19.10;7.47;;;-0.80;99.90;;;;;;5043091;28;20318;-76
2024/01/13 09:47:10;;;;;;;16.45;6.97;;;-0.90;99.90;;;;;;5043679;28;20025;-75
2024/01/13 09:49:35;;;;;;;22.23;8.05;;;-1.00;99.90;;;;;;5023324;28;20382;-75
2024/01/13 09:52:01;;;;;;;19.08;7.90;;;-1.00;99.90;;;;;;5027222;28;20328;-74
2024/01/13 09:54:29;;;;;;;15.70;6.78;;;-1.10;99.90;;;;;;5036029;28;20061;-77
2024/01/13 09:56:56;;;;;;;14.77;6.78;;;-1.20;99.90;;;;;;5042903;28;20101;-73
2024/01/13 09:59:24;;;;;;;18.00;7.72;;;-1.20;99.90;;;;;;5024067;28;20022;-76
2024/01/13 10:01:54;;;;;;;16.77;7.30;;;-1.00;99.90;;;;;;5023937;28;20044;-75
2024/01/13 10:04:23;;;;;;;15.05;6.03;;;-0.90;99.90;;;;;;5004642;28;20064;-75
2024/01/13 10:06:51;;;;;;;13.00;4.97;;;-0.80;99.90;;;;;;5022552;28;20040;-75
2024/01/13 10:09:17;;;;;;;14.27;6.57;;;-0.80;99.90;;;;;;5026814;28;20050;-75
2024/01/13 10:11:43;;;;;;;18.75;7.75;;;-1.00;99.90;;;;;;5022607;28;20323;-75
2024/01/13 10:14:14;;;;;;;17.15;7.40;;;-1.00;99.90;;;;;;5005505;28;20022;-73
2024/01/13 10:16:42;;;;;;;14.88;6.63;;;-0.90;99.90;;;;;;5022196;28;20026;-77
2024/01/13 10:19:09;;;;;;;13.18;6.10;;;-1.00;99.90;;;;;;5006167;28;20224;-76
2024/01/13 10:21:45;;;;;;;9.45;5.07;;;-1.00;99.90;;;;;;4989510;28;20018;-76
2024/01/13 10:24:13;;;;;;;12.85;5.93;;;-1.10;99.90;;;;;;5005753;28;20022;-75
2024/01/13 10:26:42;;;;;;;12.88;6.05;;;-1.20;99.90;;;;;;5008683;28;20048;-76
2024/01/13 10:29:13;;;;;;;11.60;5.82;;;-1.20;99.90;;;;;;5025538;28;20153;-75
2024/01/13 10:31:39;;;;;;;13.93;6.18;;;-1.30;99.90;;;;;;5025016;28;20045;-76
2024/01/13 10:34:20;;;;;;;13.40;6.32;;;-1.20;99.90;;;;;;5025492;28;20060;-77
2024/01/13 10:36:49;;;;;;;12.40;6.05;;;-1.00;99.90;;;;;;5042259;28;20051;-74
2024/01/13 10:39:15;;;;;;;14.00;6.55;;;-0.90;99.90;;;;;;5008360;28;20296;-76
2024/01/13 10:41:51;;;;;;;14.82;7.18;;;-0.80;99.90;;;;;;5042537;28;20020;-75
2024/01/13 10:44:21;;;;;;;18.00;8.30;;;-0.90;99.90;;;;;;5023718;28;20215;-75
2024/01/13 10:46:51;;;;;;;17.23;7.90;;;-0.90;99.90;;;;;;5040776;28;20339;-77
2024/01/13 10:49:28;;;;;;;14.90;6.68;;;-0.90;99.90;;;;;;5036956;28;20042;-76
2024/01/13 10:52:13;;;;;;;16.50;7.28;;;-0.90;99.90;;;;;;5042445;28;20095;-75
2024/01/13 10:54:40;;;;;;;13.40;6.40;;;-1.00;99.90;;;;;;5024709;28;20025;-75
2024/01/13 10:57:14;;;;;;;17.05;8.15;;;-1.10;99.90;;;;;;5042230;28;20049;-76
2024/01/13 10:59:44;;;;;;;15.23;7.50;;;-1.00;99.90;;;;;;5041996;28;20033;-74
2024/01/13 11:02:13;;;;;;;15.98;7.68;;;-0.90;99.90;;;;;;5041980;28;20029;-76
2024/01/13 11:04:44;;;;;;;15.98;7.60;;;-1.00;99.90;;;;;;5038909;28;20036;-75
2024/01/13 11:07:15;;;;;;;18.65;9.23;;;-1.00;99.90;;;;;;5022122;28;20072;-75
2024/01/13 11:09:42;;;;;;;17.88;7.82;;;-1.00;99.90;;;;;;5022068;28;20026;-76
2024/01/13 11:12:19;;;;;;;17.98;7.90;;;-1.00;99.90;;;;;;5022449;28;20076;-74
2024/01/13 11:14:56;;;;;;;;;;;-1.00;99.90;;;;;;5004899;28;20060;-77
2024/01/13 11:17:22;;;;;;;18.15;8.15;;;-1.10;99.90;;;;;;5004943;28;20143;-74
2024/01/13 11:19:47;;;;;;;16.83;7.95;;;-1.00;99.90;;;;;;5022057;28;20036;-75
2024/01/13 11:22:36;;;;;;;17.00;7.65;;;-0.90;99.90;;;;;;4988447;28;20022;-74
2024/01/13 11:25:08;;;;;;;17.67;8.10;;;-0.80;99.90;;;;;;5023236;28;20029;-73
2024/01/13 11:27:34;;;;;;;20.02;9.32;;;-0.90;99.90;;;;;;5023126;28;20105;-74
2024/01/13 11:30:03;;;;;;;17.42;8.23;;;-0.90;99.90;;;;;;5021075;28;20113;-73
2024/01/13 11:32:30;;;;;;;16.25;7.43;;;-1.00;99.90;;;;;;5022168;28;20090;-75
2024/01/13 11:34:59;;;;;;;17.17;7.60;;;-0.90;99.90;;;;;;5022463;28;20224;-74
2024/01/13 11:37:26;;;;;;;19.30;9.02;;;-1.00;99.90;;;;;;5022416;28;20029;-73
2024/01/13 11:40:04;;;;;;;17.42;7.50;;;-1.00;99.90;;;;;;5021773;28;20036;-74
2024/01/13 11:42:36;;;;;;;19.35;8.50;;;-1.00;99.90;;;;;;5016487;28;20030;-75
2024/01/13 11:45:08;;;;;;;15.90;8.10;;;-1.00;99.90;;;;;;5021241;28;20030;-73
2024/01/13 11:47:34;;;;;;;16.05;8.27;;;-0.90;99.90;;;;;;5021975;28;20033;-74
2024/01/13 11:50:35;;;;;;;17.27;8.55;;;-0.80;99.90;;;;;;5022054;28;20084;-77
2024/01/13 11:53:39;;;;;;;19.23;8.98;;;-0.70;99.90;;;;;;5020930;28;20030;-74
2024/01/13 11:56:09;;;;;;;19.23;8.18;;;-0.50;99.90;;;;;;5004257;28;20026;-73
2024/01/13 11:58:42;;;;;;;16.15;8.55;;;-0.30;99.90;;;;;;5026658;28;20037;-75
2024/01/13 12:01:09;;;;;;;17.38;9.10;;;-0.30;99.90;;;;;;5041649;28;20061;-72
2024/01/13 12:03:37;;;;;;;21.20;9.00;;;-0.30;99.90;;;;;;5041041;28;20300;-72
2024/01/13 12:06:08;;;;;;;19.80;7.97;;;-0.20;99.90;;;;;;5041526;28;20199;-73
2024/01/13 12:08:37;;;;;;;20.65;8.88;;;-0.40;99.90;;;;;;5041016;28;20200;-75
2024/01/13 12:11:05;;;;;;;19.52;8.98;;;-0.40;99.90;;;;;;5041652;28;20068;-76
2024/01/13 12:13:32;;;;;;;10.80;5.72;;;-0.40;99.90;;;;;;5041373;28;20026;-76
2024/01/13 12:16:05;;;;;;;15.77;7.57;;;-0.50;99.90;;;;;;5022155;28;20025;-74
2024/01/13 12:18:34;;;;;;;21.27;9.57;;;-0.60;99.90;;;;;;5039962;28;20041;-74
2024/01/13 12:21:04;;;;;;;14.70;7.95;;;-0.50;99.90;;;;;;5023981;28;20040;-74
2024/01/13 12:23:36;;;;;;;16.75;7.97;;;-0.50;99.90;;;;;;5041086;28;20017;-73
2024/01/13 12:26:02;;;;;;;15.77;7.45;;;-0.50;99.90;;;;;;5039802;28;20029;-74
2024/01/13 12:28:32;;;;;;;14.32;7.38;;;-0.50;99.90;;;;;;5024097;28;20052;-75
2024/01/13 12:31:03;;;;;;;16.30;7.78;;;-0.60;99.90;;;;;;5024742;28;20084;-75
2024/01/13 12:33:29;;;;;;;16.50;8.07;;;-0.60;99.90;;;;;;5023338;28;20057;-75
2024/01/13 12:36:03;;;;;;;16.67;7.25;;;-0.60;99.90;;;;;;5021859;28;20048;-75
2024/01/13 12:38:38;;;;;;;16.95;8.07;;;-0.50;99.90;;;;;;5021638;28;20050;-74
2024/01/13 12:41:22;;;;;;;16.50;8.43;;;-0.40;99.90;;;;;;5024285;28;20037;-81
2024/01/13 12:43:48;;;;;;;15.55;7.50;;;-0.30;99.90;;;;;;5031601;28;20176;-73
2024/01/13 12:46:13;;;;;;;17.75;7.82;;;-0.40;99.90;;;;;;5044781;28;20040;-75
2024/01/13 12:48:39;;;;;;;16.20;8.00;;;-0.40;99.90;;;;;;5026795;28;20029;-77
2024/01/13 12:51:16;;;;;;;16.17;7.97;;;-0.40;99.90;;;;;;5032527;28;20053;-76
2024/01/13 12:53:45;;;;;;;14.77;7.25;;;-0.30;99.90;;;;;;5024500;28;20089;-77
2024/01/13 12:56:17;;;;;;;15.52;7.55;;;-0.30;99.90;;;;;;5008669;28;20042;-75
2024/01/13 12:58:46;;;;;;;15.10;7.55;;;-0.20;99.90;;;;;;5024821;28;20034;-77
2024/01/13 13:01:14;;;;;;;17.33;8.40;;;-0.20;99.90;;;;;;5025042;28;20053;-75
2024/01/13 13:03:49;;;;;;;15.68;7.80;;;-0.10;99.90;;;;;;5024424;28;20096;-77
2024/01/13 13:06:14;;;;;;;15.35;7.80;;;-0.20;99.90;;;;;;5007262;28;20363;-75
2024/01/13 13:09:10;;;;;;;17.55;8.65;;;-0.20;99.90;;;;;;5025817;28;20056;-77
2024/01/13 13:11:38;;;;;;;17.98;8.80;;;-0.30;99.90;;;;;;5025769;28;20067;-72
2024/01/13 13:14:03;;;;;;;14.60;7.65;;;-0.20;99.90;;;;;;5044464;28;20105;-75
2024/01/13 13:16:29;;;;;;;17.63;8.60;;;0.00;99.90;;;;;;5043743;28;20024;-73
2024/01/13 13:18:54;;;;;;;16.15;8.68;;;0.10;99.90;;;;;;5040773;28;20367;-72